Time;durP1;ratioP1;P1;durP2;ratioP2;P2;SDS_P1;SDS_P2;PMS_P1;PMS_P2;Temp;Humidity;BMP_temperature;BMP_pressure;BME280_temperature;BME280_humidity;BME280_pressure;Samples;Min_cycle;Max_cycle;Signal;HPM_P1;HPM_P2
2023/08/30 00:00:11;;;;;;;4.80;4.23;;;16.00;1.00;;;;;;5024700;28;20209;-74
2023/08/30 00:02:36;;;;;;;5.67;5.17;;;16.00;1.00;;;;;;5024094;28;20209;-74
2023/08/30 00:05:03;;;;;;;6.07;4.97;;;16.10;1.00;;;;;;5026086;28;20435;-73
2023/08/30 00:07:29;;;;;;;5.20;4.63;;;16.10;1.00;;;;;;5025858;28;20213;-73
2023/08/30 00:09:55;;;;;;;5.13;4.63;;;16.10;1.00;;;;;;5024871;28;20440;-74
2023/08/30 00:12:21;;;;;;;5.50;4.93;;;16.10;1.00;;;;;;5026437;28;20185;-74
2023/08/30 00:14:47;;;;;;;8.40;5.20;;;16.20;1.00;;;;;;5026605;28;20440;-74
2023/08/30 00:17:13;;;;;;;6.87;5.07;;;16.20;1.00;;;;;;5027770;28;20198;-74
2023/08/30 00:19:38;;;;;;;6.73;5.30;;;16.20;1.00;;;;;;5027559;28;20206;-73
2023/08/30 00:22:07;;;;;;;5.93;5.20;;;16.20;1.00;;;;;;5026171;28;20521;-74
2023/08/30 00:24:33;;;;;;;7.80;5.30;;;16.20;1.00;;;;;;5023742;28;20208;-74
2023/08/30 00:26:58;;;;;;;6.30;5.60;;;16.10;1.00;;;;;;5025010;28;20456;-74
2023/08/30 00:29:24;;;;;;;6.20;5.33;;;17.80;1.00;;;;;;5025999;28;20247;-74
2023/08/30 00:31:49;;;;;;;6.80;5.93;;;16.10;1.00;;;;;;5021436;28;20320;-74
2023/08/30 00:34:15;;;;;;;6.10;5.50;;;16.10;1.00;;;;;;5027271;28;20252;-73
2023/08/30 00:36:40;;;;;;;6.47;5.83;;;16.10;1.00;;;;;;5025460;28;20198;-74
2023/08/30 00:39:06;;;;;;;9.60;6.20;;;16.20;1.00;;;;;;5025938;28;20754;-74
2023/08/30 00:41:31;;;;;;;7.20;6.50;;;16.20;1.00;;;;;;5026784;28;20201;-73
2023/08/30 00:43:57;;;;;;;7.03;6.27;;;16.20;1.00;;;;;;5025519;28;21543;-73
2023/08/30 00:46:22;;;;;;;7.10;6.40;;;16.20;1.00;;;;;;5027545;28;20216;-74
2023/08/30 00:48:48;;;;;;;11.80;7.13;;;15.90;1.00;;;;;;5025476;28;20192;-73
2023/08/30 00:51:13;;;;;;;7.93;6.83;;;16.20;1.00;;;;;;5025207;28;20192;-73
2023/08/30 00:53:39;;;;;;;8.40;7.10;;;16.20;1.00;;;;;;5025856;28;20259;-74
2023/08/30 00:56:05;;;;;;;8.90;7.00;;;16.20;1.00;;;;;;5024318;28;20232;-73
2023/08/30 00:58:31;;;;;;;8.70;7.37;;;16.30;1.00;;;;;;5025334;28;20198;-73
2023/08/30 01:00:57;;;;;;;8.80;7.90;;;16.30;1.00;;;;;;5027094;28;20185;-74
2023/08/30 01:03:23;;;;;;;9.00;7.37;;;16.30;1.00;;;;;;5025778;28;20271;-73
2023/08/30 01:05:48;;;;;;;9.77;7.83;;;16.40;1.00;;;;;;5026791;28;20470;-74
2023/08/30 01:08:14;;;;;;;9.17;8.10;;;16.40;1.00;;;;;;5025113;28;20181;-74
2023/08/30 01:10:57;;;;;;;10.97;8.17;;;16.40;1.00;;;;;;5023345;28;20257;-73
2023/08/30 01:13:25;;;;;;;10.63;7.37;;;16.40;1.00;;;;;;5022707;28;20268;-73
2023/08/30 01:15:53;;;;;;;15.10;7.47;;;16.40;1.00;;;;;;5025435;28;20447;-73
2023/08/30 01:18:21;;;;;;;9.83;7.93;;;16.40;1.00;;;;;;5026369;28;20528;-74
2023/08/30 01:20:48;;;;;;;9.77;8.77;;;16.40;1.00;;;;;;5023215;28;20428;-73
2023/08/30 01:23:52;;;;;;;12.93;7.77;;;16.40;1.00;;;;;;5022753;28;20837;-73
2023/08/30 01:26:31;;;;;;;8.37;7.47;;;16.40;1.00;;;;;;5023196;28;20550;-74
2023/08/30 01:29:00;;;;;;;9.73;7.93;;;16.40;1.00;;;;;;5024892;28;20432;-73
2023/08/30 01:31:27;;;;;;;8.73;7.70;;;16.40;1.00;;;;;;5024755;28;20910;-74
2023/08/30 01:33:53;;;;;;;8.47;7.53;;;16.60;1.00;;;;;;5023739;28;20440;-73
2023/08/30 01:36:19;;;;;;;8.43;7.50;;;16.40;1.00;;;;;;5021641;28;20830;-74
2023/08/30 01:38:46;;;;;;;9.30;7.70;;;16.40;1.00;;;;;;5025645;28;20432;-73
2023/08/30 01:41:12;;;;;;;12.40;8.40;;;16.40;1.00;;;;;;5024560;28;20208;-76
2023/08/30 01:43:38;;;;;;;9.47;8.57;;;16.50;1.00;;;;;;5025608;28;21010;-74
2023/08/30 01:46:05;;;;;;;9.37;8.37;;;16.40;1.00;;;;;;5023689;28;22025;-73
2023/08/30 01:48:33;;;;;;;11.70;8.33;;;16.40;1.00;;;;;;5021763;28;20519;-73
2023/08/30 01:51:00;;;;;;;11.00;7.77;;;16.40;1.00;;;;;;5024277;28;20565;-74
2023/08/30 01:53:26;;;;;;;9.20;7.50;;;16.30;1.00;;;;;;5024465;28;20519;-73
2023/08/30 01:55:52;;;;;;;10.53;7.83;;;16.40;1.00;;;;;;5025241;28;20470;-73
2023/08/30 01:58:19;;;;;;;10.00;9.00;;;16.40;1.00;;;;;;5024538;28;20463;-73
2023/08/30 02:00:44;;;;;;;11.23;8.73;;;16.40;1.00;;;;;;5020626;28;20182;-73
2023/08/30 02:03:14;;;;;;;10.00;8.60;;;16.60;1.00;;;;;;5020418;28;20468;-73
2023/08/30 02:06:04;;;;;;;10.37;8.37;;;16.20;1.00;;;;;;5024447;28;20557;-73
2023/08/30 02:08:41;;;;;;;10.10;8.47;;;16.30;1.00;;;;;;5025467;28;20560;-74
2023/08/30 02:11:12;;;;;;;10.20;8.80;;;16.30;1.00;;;;;;5024880;28;20447;-73
2023/08/30 02:13:39;;;;;;;10.63;8.80;;;16.30;1.00;;;;;;5024902;28;20483;-75
2023/08/30 02:16:06;;;;;;;9.33;8.30;;;16.30;1.00;;;;;;5034599;28;20969;-73
2023/08/30 02:18:32;;;;;;;9.23;8.20;;;16.30;1.00;;;;;;5029436;28;20498;-73
2023/08/30 02:20:58;;;;;;;10.43;8.50;;;16.30;1.00;;;;;;5028211;28;20444;-73
2023/08/30 02:23:25;;;;;;;10.43;9.17;;;16.30;1.00;;;;;;5025360;28;20272;-74
2023/08/30 02:25:50;;;;;;;9.93;8.60;;;16.30;1.00;;;;;;5028005;28;20190;-73
2023/08/30 02:28:16;;;;;;;13.03;8.37;;;16.20;1.00;;;;;;5027273;28;20980;-75
2023/08/30 02:30:41;;;;;;;17.13;8.60;;;16.30;1.00;;;;;;5028750;28;20186;-73
2023/08/30 02:33:07;;;;;;;11.80;8.80;;;16.20;1.00;;;;;;5029353;28;20196;-73
2023/08/30 02:38:10;;;;;;;10.20;9.20;;;16.20;1.00;;;;;;4984278;28;20211;-75
2023/08/30 02:40:36;;;;;;;10.40;9.30;;;16.20;1.00;;;;;;4989190;28;20442;-76
2023/08/30 02:43:01;;;;;;;11.03;9.13;;;16.20;1.00;;;;;;4988575;28;20218;-75
2023/08/30 02:45:27;;;;;;;9.80;8.80;;;16.20;1.00;;;;;;4988663;28;20179;-76
2023/08/30 02:47:56;;;;;;;9.70;7.83;;;16.20;1.00;;;;;;4992370;28;20195;-77
2023/08/30 02:50:22;;;;;;;9.67;8.57;;;16.20;1.00;;;;;;4974472;28;20245;-77
2023/08/30 02:52:47;;;;;;;12.80;8.97;;;16.20;1.00;;;;;;4989458;28;20469;-77
2023/08/30 02:55:13;;;;;;;10.10;9.10;;;16.20;1.00;;;;;;4990502;28;20187;-76
2023/08/30 02:57:39;;;;;;;10.07;8.97;;;16.20;1.00;;;;;;4974938;28;20207;-78
2023/08/30 03:00:05;;;;;;;9.27;8.27;;;16.20;1.00;;;;;;4992242;28;20259;-76
2023/08/30 03:02:33;;;;;;;10.90;8.90;;;16.20;1.00;;;;;;4989292;28;20218;-77
2023/08/30 03:04:59;;;;;;;9.53;8.53;;;16.30;1.00;;;;;;4992386;28;20525;-75
2023/08/30 03:07:24;;;;;;;13.70;9.77;;;16.20;1.00;;;;;;4973772;28;20593;-77
2023/08/30 03:09:53;;;;;;;10.10;8.80;;;16.20;1.00;;;;;;4994223;28;20488;-76
2023/08/30 03:12:19;;;;;;;11.50;9.33;;;16.20;1.00;;;;;;4976542;28;20190;-77
2023/08/30 03:14:45;;;;;;;11.63;10.40;;;16.20;1.00;;;;;;4994449;28;20438;-76
2023/08/30 03:17:10;;;;;;;12.47;10.47;;;16.20;1.00;;;;;;4975949;28;20226;-77
2023/08/30 03:19:36;;;;;;;13.83;10.20;;;16.10;1.00;;;;;;4973939;28;20241;-76
2023/08/30 03:22:01;;;;;;;11.90;10.20;;;16.20;1.00;;;;;;4994846;28;20266;-76
2023/08/30 03:24:27;;;;;;;13.23;10.30;;;16.20;1.00;;;;;;4978422;28;20297;-76
2023/08/30 03:26:52;;;;;;;10.47;9.20;;;16.20;1.00;;;;;;4997608;28;20278;-77
2023/08/30 03:29:18;;;;;;;11.23;9.60;;;16.10;1.00;;;;;;4976519;28;20202;-75
2023/08/30 03:31:43;;;;;;;16.73;10.10;;;16.10;1.00;;;;;;4991667;28;20198;-76
2023/08/30 03:34:09;;;;;;;10.93;9.73;;;16.20;1.00;;;;;;4974335;28;20226;-76
2023/08/30 03:36:35;;;;;;;10.90;8.70;;;16.10;1.00;;;;;;4993174;28;20240;-77
2023/08/30 03:39:00;;;;;;;8.97;8.07;;;16.20;1.00;;;;;;4970417;28;20195;-75
2023/08/30 03:41:26;;;;;;;12.83;8.93;;;16.20;1.00;;;;;;4991998;28;20290;-78
2023/08/30 03:43:51;;;;;;;10.13;8.80;;;16.20;1.00;;;;;;4991576;28;20498;-76
2023/08/30 03:46:17;;;;;;;10.37;8.60;;;16.20;1.00;;;;;;4975387;28;20227;-76
2023/08/30 03:48:42;;;;;;;10.17;9.07;;;16.40;1.00;;;;;;4991155;28;20245;-76
2023/08/30 03:51:08;;;;;;;11.20;8.70;;;16.20;1.00;;;;;;4993356;28;20270;-79
2023/08/30 03:53:33;;;;;;;10.03;9.03;;;16.20;1.00;;;;;;4972800;28;20183;-77
2023/08/30 03:55:59;;;;;;;11.40;9.20;;;16.10;1.00;;;;;;4993923;28;20211;-76
2023/08/30 03:58:25;;;;;;;10.27;9.17;;;16.10;1.00;;;;;;4990951;28;20695;-76
2023/08/30 04:00:50;;;;;;;10.43;9.23;;;16.20;1.00;;;;;;4987920;28;20191;-76
2023/08/30 04:03:16;;;;;;;11.30;8.63;;;16.10;1.00;;;;;;4974809;28;20203;-78
2023/08/30 04:05:42;;;;;;;12.50;8.80;;;16.10;1.00;;;;;;4992193;28;20183;-75
2023/08/30 04:08:08;;;;;;;12.83;8.70;;;16.10;1.00;;;;;;4972743;28;20183;-77
2023/08/30 04:10:35;;;;;;;10.10;8.70;;;16.10;1.00;;;;;;4985297;28;20527;-76
2023/08/30 04:13:01;;;;;;;11.20;8.97;;;16.10;1.00;;;;;;4989570;28;20442;-77
2023/08/30 04:15:26;;;;;;;13.17;8.83;;;16.20;1.00;;;;;;4993034;28;20453;-77
2023/08/30 04:17:52;;;;;;;12.70;9.10;;;16.10;1.00;;;;;;4991160;28;20234;-76
2023/08/30 04:20:17;;;;;;;9.90;7.93;;;16.40;1.00;;;;;;4993156;28;22144;-76
2023/08/30 04:22:43;;;;;;;9.70;8.70;;;16.00;1.00;;;;;;4989975;28;20678;-77
2023/08/30 04:25:09;;;;;;;10.67;9.57;;;16.00;1.00;;;;;;4965367;28;20546;-76
2023/08/30 04:27:35;;;;;;;9.13;8.23;;;16.00;1.00;;;;;;4990714;28;20480;-75
2023/08/30 04:30:01;;;;;;;9.97;8.97;;;16.00;1.00;;;;;;4970594;28;20721;-73
2023/08/30 04:32:26;;;;;;;9.63;8.63;;;15.90;1.00;;;;;;4972249;28;20662;-75
2023/08/30 04:34:52;;;;;;;10.13;9.03;;;16.00;1.00;;;;;;4973086;28;20453;-76
2023/08/30 04:37:17;;;;;;;10.20;8.93;;;16.00;1.00;;;;;;4988917;28;20345;-77
2023/08/30 04:39:43;;;;;;;10.33;9.23;;;;;;;;;;4987392;28;20677;-75
2023/08/30 04:42:09;;;;;;;10.87;9.60;;;15.90;1.00;;;;;;4986907;28;20191;-75
2023/08/30 04:44:34;;;;;;;10.50;8.43;;;15.90;1.00;;;;;;4965370;28;20214;-75
2023/08/30 04:46:59;;;;;;;10.67;8.60;;;15.90;1.00;;;;;;4989952;28;20215;-77
2023/08/30 04:49:25;;;;;;;11.23;8.40;;;15.90;1.00;;;;;;4990616;28;20198;-76
2023/08/30 04:51:51;;;;;;;14.40;8.50;;;15.90;1.00;;;;;;4988293;28;20191;-75
2023/08/30 04:54:17;;;;;;;10.70;8.80;;;15.80;1.00;;;;;;4989314;28;20230;-75
2023/08/30 04:56:43;;;;;;;10.30;9.30;;;15.90;1.00;;;;;;4989813;28;20210;-76
2023/08/30 04:59:08;;;;;;;11.83;9.50;;;15.90;1.00;;;;;;4987065;28;20194;-77
2023/08/30 05:01:34;;;;;;;11.20;9.07;;;15.90;1.00;;;;;;4987651;28;20446;-75
2023/08/30 05:03:59;;;;;;;11.60;8.53;;;16.00;1.00;;;;;;4988052;28;20811;-75
2023/08/30 05:06:25;;;;;;;10.50;9.20;;;16.00;1.00;;;;;;4989495;28;20669;-76
2023/08/30 05:08:51;;;;;;;12.40;9.17;;;16.00;1.00;;;;;;4989946;28;20195;-76
2023/08/30 05:11:16;;;;;;;10.50;8.80;;;16.10;1.00;;;;;;4962708;28;20451;-75
2023/08/30 05:13:42;;;;;;;10.20;8.43;;;16.20;1.00;;;;;;4989496;28;20254;-76
2023/08/30 05:16:07;;;;;;;11.90;9.17;;;16.20;1.00;;;;;;4989271;28;20213;-75
2023/08/30 05:18:33;;;;;;;11.40;8.80;;;16.20;1.00;;;;;;4990720;28;20206;-76
2023/08/30 05:20:58;;;;;;;11.77;9.03;;;16.20;1.00;;;;;;4989399;28;20206;-75
2023/08/30 05:23:24;;;;;;;12.07;8.57;;;16.30;1.00;;;;;;4988088;28;23009;-75
2023/08/30 05:25:49;;;;;;;13.77;8.70;;;16.40;1.00;;;;;;4989557;28;20223;-77
2023/08/30 05:28:15;;;;;;;10.00;8.77;;;16.40;1.00;;;;;;4987997;28;20211;-75
2023/08/30 05:30:42;;;;;;;9.57;8.30;;;16.40;1.00;;;;;;4987282;28;20178;-76
2023/08/30 05:33:08;;;;;;;10.13;8.80;;;16.40;1.00;;;;;;4968410;28;20658;-75
2023/08/30 05:35:34;;;;;;;11.87;8.27;;;16.50;1.00;;;;;;4988802;28;20457;-77
2023/08/30 05:37:59;;;;;;;9.20;8.13;;;16.50;1.00;;;;;;4987843;28;20693;-75
2023/08/30 05:40:25;;;;;;;12.40;8.53;;;16.60;1.00;;;;;;4971913;28;20574;-76
2023/08/30 05:42:50;;;;;;;11.33;8.77;;;16.60;1.00;;;;;;4972441;28;20238;-76
2023/08/30 05:45:16;;;;;;;9.70;8.60;;;16.60;1.00;;;;;;4989119;28;20233;-75
2023/08/30 05:47:41;;;;;;;13.67;9.10;;;16.60;1.00;;;;;;4989588;28;20207;-75
2023/08/30 05:50:07;;;;;;;8.87;7.97;;;16.70;1.00;;;;;;4989722;28;20650;-75
2023/08/30 05:52:33;;;;;;;10.67;9.57;;;16.80;1.00;;;;;;4989348;28;20218;-75
2023/08/30 05:54:59;;;;;;;9.73;8.50;;;16.70;1.00;;;;;;4987969;28;20462;-75
2023/08/30 05:57:25;;;;;;;10.30;8.60;;;16.70;1.00;;;;;;4988324;28;20218;-75
2023/08/30 05:59:51;;;;;;;13.73;8.80;;;16.70;1.00;;;;;;4987456;28;20234;-75
2023/08/30 06:02:16;;;;;;;14.20;9.00;;;16.70;1.00;;;;;;4986460;28;20194;-74
2023/08/30 06:04:42;;;;;;;10.00;8.90;;;16.80;1.00;;;;;;4987865;28;20741;-75
2023/08/30 06:07:08;;;;;;;11.23;9.07;;;16.70;1.00;;;;;;4989126;28;20660;-76
2023/08/30 06:09:33;;;;;;;9.93;8.90;;;16.70;1.00;;;;;;4988003;28;20175;-76
2023/08/30 06:11:59;;;;;;;11.10;8.70;;;16.80;1.00;;;;;;4969127;28;20188;-75
2023/08/30 06:14:24;;;;;;;11.90;8.87;;;16.90;1.00;;;;;;4986857;28;20670;-75
2023/08/30 06:16:50;;;;;;;8.80;7.90;;;16.90;1.00;;;;;;4971555;28;20302;-75
2023/08/30 06:19:16;;;;;;;9.67;8.00;;;;;;;;;;4971714;28;20202;-75
2023/08/30 06:21:41;;;;;;;10.50;8.37;;;17.10;1.00;;;;;;4986954;28;20294;-75
2023/08/30 06:24:07;;;;;;;10.00;8.90;;;17.20;1.00;;;;;;4984342;28;20226;-75
2023/08/30 06:26:32;;;;;;;10.70;8.90;;;17.20;1.00;;;;;;4985905;28;20203;-76
2023/08/30 06:28:58;;;;;;;10.90;9.30;;;17.20;1.00;;;;;;4969354;28;20531;-76
2023/08/30 06:31:24;;;;;;;9.93;8.90;;;17.20;1.00;;;;;;4987237;28;20562;-76
2023/08/30 06:33:50;;;;;;;16.07;9.13;;;17.20;1.00;;;;;;4987819;28;20294;-75
2023/08/30 06:36:17;;;;;;;10.03;8.93;;;17.20;1.00;;;;;;4987713;28;20207;-76
2023/08/30 06:38:43;;;;;;;10.00;9.00;;;17.20;1.00;;;;;;4983079;28;20531;-76
2023/08/30 06:41:08;;;;;;;10.77;8.40;;;17.20;1.00;;;;;;4988010;28;20554;-76
2023/08/30 06:43:34;;;;;;;9.87;7.90;;;17.70;1.00;;;;;;4969755;28;20223;-75
2023/08/30 06:46:00;;;;;;;10.30;9.00;;;17.60;1.00;;;;;;4987930;28;20207;-76
2023/08/30 06:48:26;;;;;;;10.70;8.73;;;17.70;1.00;;;;;;4986541;28;20270;-75
2023/08/30 06:50:51;;;;;;;11.20;9.50;;;17.60;1.00;;;;;;4985692;28;20191;-77
2023/08/30 06:53:17;;;;;;;10.57;9.17;;;17.50;1.00;;;;;;4988217;28;20187;-75
2023/08/30 06:55:42;;;;;;;11.17;8.90;;;17.30;1.00;;;;;;4986770;28;20223;-75
2023/08/30 06:58:08;;;;;;;10.17;9.17;;;17.30;1.00;;;;;;4986918;28;20191;-75
2023/08/30 07:00:33;;;;;;;10.23;9.10;;;17.30;1.00;;;;;;4986850;28;20206;-76
2023/08/30 07:02:59;;;;;;;11.47;9.40;;;17.30;1.00;;;;;;4990642;28;20964;-76
2023/08/30 07:05:25;;;;;;;11.23;9.10;;;17.50;1.00;;;;;;4989408;28;20716;-75
2023/08/30 07:07:50;;;;;;;11.73;9.40;;;17.00;1.00;;;;;;4974717;28;20203;-75
2023/08/30 07:10:16;;;;;;;11.23;9.40;;;17.70;1.00;;;;;;4988664;28;20186;-74
2023/08/30 07:12:41;;;;;;;11.37;8.73;;;17.70;1.00;;;;;;4972961;28;20194;-75
2023/08/30 07:15:07;;;;;;;11.60;9.10;;;17.90;1.00;;;;;;4991914;28;20241;-75
2023/08/30 07:17:33;;;;;;;10.90;9.80;;;18.10;1.00;;;;;;4991282;28;20269;-75
2023/08/30 07:19:58;;;;;;;19.00;9.17;;;18.50;1.00;;;;;;4974648;28;20450;-75
2023/08/30 07:22:24;;;;;;;11.93;10.00;;;18.50;1.00;;;;;;4989308;28;20538;-75
2023/08/30 07:24:50;;;;;;;12.03;9.90;;;18.40;1.00;;;;;;4990628;28;20215;-75
2023/08/30 07:27:15;;;;;;;10.33;9.20;;;18.40;1.00;;;;;;4991602;28;20218;-75
2023/08/30 07:29:41;;;;;;;11.20;8.90;;;18.50;1.00;;;;;;4989655;28;20175;-78
2023/08/30 07:32:07;;;;;;;14.00;9.63;;;18.70;1.00;;;;;;4991576;28;20329;-75
2023/08/30 07:34:33;;;;;;;11.13;9.83;;;18.60;1.00;;;;;;4991517;28;20183;-77
2023/08/30 07:36:58;;;;;;;12.43;9.57;;;19.00;1.00;;;;;;4974123;28;20466;-75
2023/08/30 07:39:24;;;;;;;9.60;8.33;;;19.30;1.00;;;;;;4989572;28;20187;-75
2023/08/30 07:41:50;;;;;;;10.23;8.30;;;20.00;1.00;;;;;;4989829;28;20248;-76
2023/08/30 07:44:16;;;;;;;12.70;8.00;;;20.80;1.00;;;;;;4990903;28;20304;-75
2023/08/30 07:46:41;;;;;;;10.53;9.20;;;21.10;1.00;;;;;;4970642;28;20226;-75
2023/08/30 07:49:07;;;;;;;10.60;7.77;;;20.90;1.00;;;;;;4989873;28;20228;-72
2023/08/30 07:51:32;;;;;;;10.43;7.17;;;21.30;1.00;;;;;;4988735;28;20182;-76
2023/08/30 07:53:58;;;;;;;9.67;8.70;;;21.90;1.00;;;;;;4989097;28;20189;-76
2023/08/30 07:56:24;;;;;;;12.73;8.67;;;21.40;1.00;;;;;;4969895;28;20232;-75
2023/08/30 07:58:49;;;;;;;13.43;8.77;;;21.30;1.00;;;;;;4990984;28;20175;-75
2023/08/30 08:01:15;;;;;;;13.23;8.00;;;20.70;1.00;;;;;;4990818;28;20609;-76
2023/08/30 08:03:41;;;;;;;10.67;8.30;;;20.20;1.00;;;;;;4987731;28;20330;-77
2023/08/30 08:06:07;;;;;;;10.83;7.90;;;20.30;1.00;;;;;;4989349;28;20225;-76
2023/08/30 08:08:32;;;;;;;9.13;7.80;;;20.90;1.00;;;;;;4990749;28;20988;-76
2023/08/30 08:10:59;;;;;;;9.50;7.47;;;21.60;1.00;;;;;;4990017;28;20190;-75
2023/08/30 08:13:25;;;;;;;8.20;6.93;;;22.40;1.00;;;;;;4989974;28;20215;-77
2023/08/30 08:15:51;;;;;;;8.63;7.40;;;23.10;1.00;;;;;;4990060;28;20802;-75
2023/08/30 08:18:16;;;;;;;8.93;8.03;;;23.20;1.00;;;;;;4988428;28;20201;-76
2023/08/30 08:20:42;;;;;;;8.67;6.90;;;22.90;1.00;;;;;;4990262;28;20194;-75
2023/08/30 08:23:08;;;;;;;8.07;7.27;;;23.90;1.00;;;;;;4970442;28;20213;-74
2023/08/30 08:25:34;;;;;;;9.33;6.70;;;23.60;1.00;;;;;;4989021;28;20429;-75
2023/08/30 08:27:59;;;;;;;7.93;7.13;;;24.20;1.00;;;;;;4971850;28;20206;-75
2023/08/30 08:30:25;;;;;;;11.70;8.00;;;24.70;1.00;;;;;;4988320;28;20183;-75
2023/08/30 08:32:50;;;;;;;8.57;6.80;;;24.00;1.00;;;;;;4973205;28;20229;-75
2023/08/30 08:35:16;;;;;;;8.03;7.23;;;24.30;1.00;;;;;;4990036;28;20210;-76
2023/08/30 08:37:41;;;;;;;8.17;6.70;;;24.40;1.00;;;;;;4990688;28;20222;-74
2023/08/30 08:40:10;;;;;;;8.00;7.20;;;24.60;1.00;;;;;;4989150;28;20270;-76
2023/08/30 08:42:37;;;;;;;9.33;6.60;;;24.90;1.00;;;;;;4986519;28;20222;-77
2023/08/30 08:45:04;;;;;;;11.67;7.33;;;24.80;1.00;;;;;;4988596;28;21001;-76
2023/08/30 08:47:33;;;;;;;8.03;6.00;;;24.70;1.00;;;;;;4987155;28;20500;-76
2023/08/30 08:50:00;;;;;;;7.00;5.40;;;25.10;1.00;;;;;;4988756;28;20533;-75
2023/08/30 08:52:26;;;;;;;7.17;5.40;;;25.30;1.00;;;;;;4989374;28;20445;-76
2023/08/30 08:54:54;;;;;;;7.67;5.50;;;25.40;1.00;;;;;;4987123;28;20434;-75
2023/08/30 08:57:20;;;;;;;9.53;6.30;;;24.90;1.00;;;;;;4991343;28;20552;-75
2023/08/30 08:59:46;;;;;;;6.70;5.60;;;24.50;1.00;;;;;;4990408;28;21247;-76
2023/08/30 09:02:15;;;;;;;7.23;5.83;;;24.40;1.00;;;;;;4991170;28;20528;-76
2023/08/30 09:04:41;;;;;;;7.60;5.30;;;;;;;;;;4973007;28;20206;-75
2023/08/30 09:07:06;;;;;;;8.97;5.80;;;25.70;1.00;;;;;;4989782;28;20836;-76
2023/08/30 09:09:34;;;;;;;9.10;5.73;;;25.50;1.00;;;;;;4988115;28;20437;-76
2023/08/30 09:11:59;;;;;;;7.23;4.80;;;25.00;1.00;;;;;;4984221;28;20183;-75
2023/08/30 09:14:25;;;;;;;6.13;5.10;;;25.60;1.00;;;;;;4991069;28;20440;-76
2023/08/30 09:16:54;;;;;;;5.83;4.50;;;26.10;1.00;;;;;;4987508;28;20799;-76
2023/08/30 09:19:21;;;;;;;11.50;5.20;;;26.50;1.00;;;;;;4970209;28;20263;-76
2023/08/30 09:21:56;;;;;;;7.43;4.83;;;26.60;1.00;;;;;;4989347;28;20796;-76
2023/08/30 09:24:22;;;;;;;9.33;4.80;;;26.50;1.00;;;;;;4969193;28;21350;-77
2023/08/30 09:26:57;;;;;;;4.73;4.07;;;26.50;1.00;;;;;;4986720;28;20469;-78
2023/08/30 09:29:23;;;;;;;8.53;5.50;;;27.10;1.00;;;;;;4987996;28;20186;-76
2023/08/30 09:31:53;;;;;;;5.80;4.60;;;27.10;1.00;;;;;;4983967;28;20194;-75
2023/08/30 09:34:22;;;;;;;5.93;4.77;;;27.00;1.00;;;;;;4988791;28;20186;-76
2023/08/30 09:36:50;;;;;;;7.27;5.20;;;26.50;1.00;;;;;;4971612;28;20240;-76
2023/08/30 09:39:15;;;;;;;5.60;5.00;;;26.40;1.00;;;;;;4986491;28;20587;-73
2023/08/30 09:41:43;;;;;;;7.50;5.40;;;26.50;1.00;;;;;;4988672;28;20537;-77
2023/08/30 09:44:19;;;;;;;10.30;4.57;;;26.50;1.00;;;;;;4987691;28;20441;-73
2023/08/30 09:46:55;;;;;;;10.17;4.83;;;27.60;1.00;;;;;;4987205;28;20226;-73
2023/08/30 09:49:22;;;;;;;7.57;4.67;;;28.50;1.00;;;;;;4989520;28;20276;-73
2023/08/30 09:51:49;;;;;;;7.13;4.70;;;28.90;1.00;;;;;;4988784;28;20179;-73
2023/08/30 09:54:16;;;;;;;7.53;3.80;;;29.70;1.00;;;;;;4970047;28;20191;-73
2023/08/30 09:56:43;;;;;;;5.68;4.20;;;30.10;1.00;;;;;;4987638;28;20203;-73
2023/08/30 09:59:11;;;;;;;6.90;3.90;;;29.70;1.00;;;;;;4989767;28;20240;-73
2023/08/30 10:01:37;;;;;;;7.00;4.47;;;29.60;1.00;;;;;;4986740;28;20197;-73
2023/08/30 10:04:03;;;;;;;5.10;4.27;;;28.90;1.00;;;;;;4988685;28;20206;-74
2023/08/30 10:06:29;;;;;;;5.70;4.30;;;29.10;1.00;;;;;;4971947;28;20248;-73
2023/08/30 10:08:56;;;;;;;13.53;4.70;;;29.50;1.00;;;;;;4989626;28;20174;-73
2023/08/30 10:11:23;;;;;;;5.03;4.20;;;28.50;1.00;;;;;;4989249;28;20646;-73
2023/08/30 10:13:52;;;;;;;4.73;4.23;;;27.50;1.00;;;;;;4989091;28;20186;-73
2023/08/30 10:16:22;;;;;;;4.80;3.83;;;27.00;1.00;;;;;;4970653;28;20749;-73
2023/08/30 10:18:54;;;;;;;6.43;5.10;;;26.90;1.00;;;;;;4988341;28;20192;-73
2023/08/30 10:21:21;;;;;;;8.60;4.50;;;26.80;1.00;;;;;;4989496;28;20182;-73
2023/08/30 10:23:49;;;;;;;7.43;4.80;;;26.80;1.00;;;;;;4988047;28;20202;-73
2023/08/30 10:26:16;;;;;;;8.87;4.53;;;26.40;1.00;;;;;;4988095;28;20210;-73
2023/08/30 10:28:43;;;;;;;5.97;4.40;;;26.50;1.00;;;;;;4988974;28;20436;-73
2023/08/30 10:31:09;;;;;;;7.20;4.67;;;26.20;1.00;;;;;;4972424;28;20441;-73
2023/08/30 10:33:48;;;;;;;16.03;4.57;;;26.40;1.00;;;;;;4987878;28;20433;-74
2023/08/30 10:36:23;;;;;;;6.27;4.30;;;25.90;1.00;;;;;;4989806;28;20202;-74
2023/08/30 10:38:58;;;;;;;7.50;4.37;;;26.00;1.00;;;;;;4991245;28;20919;-72
2023/08/30 10:41:25;;;;;;;5.10;4.10;;;26.30;1.00;;;;;;4992122;28;20527;-73
2023/08/30 10:43:54;;;;;;;6.57;4.40;;;26.70;1.00;;;;;;4993097;28;20492;-72
2023/08/30 10:46:34;;;;;;;5.17;4.13;;;27.10;1.00;;;;;;4973709;28;20526;-73
2023/08/30 10:49:14;;;;;;;9.00;4.07;;;28.10;1.00;;;;;;4991434;28;20193;-74
2023/08/30 10:51:40;;;;;;;6.17;4.30;;;29.50;1.00;;;;;;4990051;28;20183;-73
2023/08/30 10:54:16;;;;;;;5.70;3.80;;;30.30;1.00;;;;;;4991135;28;20182;-73
2023/08/30 10:56:59;;;;;;;9.65;3.63;;;30.80;1.00;;;;;;4991585;28;20205;-73
2023/08/30 10:59:25;;;;;;;4.20;3.45;;;31.90;1.00;;;;;;4984268;28;20247;-73
2023/08/30 11:01:52;;;;;;;4.68;3.50;;;32.70;1.00;;;;;;4990165;28;20186;-74
2023/08/30 11:04:18;;;;;;;4.70;3.67;;;32.70;1.00;;;;;;4991521;28;20562;-73
2023/08/30 11:06:47;;;;;;;4.55;3.40;;;31.90;1.00;;;;;;4990759;28;20214;-73
2023/08/30 11:09:18;;;;;;;5.07;3.72;;;31.70;1.00;;;;;;4973498;28;20232;-73
2023/08/30 11:11:47;;;;;;;3.85;3.10;;;32.80;1.00;;;;;;4990914;28;20196;-73
2023/08/30 11:14:14;;;;;;;4.70;2.78;;;33.10;1.00;;;;;;4990210;28;20195;-73
2023/08/30 11:16:39;;;;;;;5.20;3.15;;;32.70;1.00;;;;;;4989437;28;20213;-72
2023/08/30 11:19:07;;;;;;;4.32;2.78;;;32.60;1.00;;;;;;4991014;28;20537;-75
2023/08/30 11:21:36;;;;;;;4.82;3.30;;;33.80;1.00;;;;;;4992496;28;20322;-73
2023/08/30 11:24:03;;;;;;;4.60;3.10;;;34.60;1.00;;;;;;4990765;28;20214;-73
2023/08/30 11:26:29;;;;;;;3.90;2.90;;;34.00;1.00;;;;;;4989771;28;20571;-78
2023/08/30 11:28:55;;;;;;;3.78;2.97;;;34.40;1.00;;;;;;4991736;28;20532;-75
2023/08/30 11:31:27;;;;;;;9.93;3.60;;;34.10;1.00;;;;;;4990167;28;20190;-75
2023/08/30 11:33:58;;;;;;;3.70;3.10;;;33.50;1.00;;;;;;4991717;28;20210;-76
2023/08/30 11:36:27;;;;;;;3.70;2.80;;;33.50;1.00;;;;;;4991642;28;20238;-75
2023/08/30 11:38:56;;;;;;;3.95;2.83;;;33.40;1.00;;;;;;4973193;28;20329;-75
2023/08/30 11:41:22;;;;;;;4.85;2.88;;;34.00;1.00;;;;;;4990561;28;20236;-79
2023/08/30 11:43:48;;;;;;;3.72;2.72;;;33.10;1.00;;;;;;4973475;28;20206;-79
2023/08/30 11:46:14;;;;;;;5.40;3.08;;;33.10;1.00;;;;;;4988694;28;20209;-75
2023/08/30 11:48:40;;;;;;;7.55;2.80;;;34.20;1.00;;;;;;4991336;28;20179;-75
2023/08/30 11:51:07;;;;;;;3.50;2.42;;;33.10;1.00;;;;;;4975184;28;20658;-75
2023/08/30 11:53:33;;;;;;;5.35;2.60;;;33.50;1.00;;;;;;4992200;28;20190;-76
2023/08/30 11:55:59;;;;;;;3.72;2.70;;;34.50;1.00;;;;;;4992252;28;20206;-76
2023/08/30 11:58:24;;;;;;;4.38;2.75;;;34.90;1.00;;;;;;4992345;28;20274;-75
2023/08/30 12:00:51;;;;;;;4.40;2.70;;;34.80;1.00;;;;;;4992191;28;20684;-75
2023/08/30 12:03:16;;;;;;;3.80;2.78;;;33.60;1.00;;;;;;4992468;28;20198;-74
2023/08/30 12:05:47;;;;;;;4.93;2.80;;;34.90;1.00;;;;;;4991900;28;20185;-75
2023/08/30 12:08:19;;;;;;;4.75;2.85;;;34.90;1.00;;;;;;4992555;28;20233;-76
2023/08/30 12:10:46;;;;;;;4.20;2.58;;;35.40;1.00;;;;;;4973824;28;20281;-75
2023/08/30 12:13:37;;;;;;;4.00;2.90;;;36.00;1.00;;;;;;4992288;28;20175;-75
2023/08/30 12:16:03;;;;;;;7.03;2.65;;;35.60;1.00;;;;;;4974350;28;20202;-76
2023/08/30 12:18:34;;;;;;;6.10;2.63;;;34.80;1.00;;;;;;4992351;28;20186;-76
2023/08/30 12:21:02;;;;;;;4.78;2.80;;;35.10;1.00;;;;;;4991508;28;20191;-77
2023/08/30 12:23:30;;;;;;;4.53;2.35;;;35.70;1.00;;;;;;4990247;28;20338;-77
2023/08/30 12:26:03;;;;;;;3.80;2.83;;;35.50;1.00;;;;;;4991673;28;20186;-76
2023/08/30 12:28:30;;;;;;;4.93;2.70;;;35.10;1.00;;;;;;4991959;28;20186;-76
2023/08/30 12:30:56;;;;;;;4.28;2.70;;;34.10;1.00;;;;;;4991449;28;20257;-75
2023/08/30 12:33:22;;;;;;;3.97;2.78;;;35.10;1.00;;;;;;4991532;28;20186;-76
2023/08/30 12:35:48;;;;;;;8.05;3.20;;;36.60;1.00;;;;;;4990914;28;20553;-75
2023/08/30 12:38:17;;;;;;;6.25;2.80;;;36.60;1.00;;;;;;4991896;28;20201;-76
2023/08/30 12:40:46;;;;;;;6.28;3.00;;;36.70;1.00;;;;;;4991662;28;20187;-75
2023/08/30 12:43:13;;;;;;;4.65;2.95;;;33.70;1.00;;;;;;4982967;28;20609;-75
2023/08/30 12:45:40;;;;;;;4.15;2.67;;;34.10;1.00;;;;;;4991397;28;20178;-73
2023/08/30 12:48:06;;;;;;;4.90;3.05;;;34.20;1.00;;;;;;4991334;28;20269;-76
2023/08/30 12:50:32;;;;;;;5.57;2.80;;;33.70;1.00;;;;;;4984773;28;20290;-75
2023/08/30 12:52:57;;;;;;;5.20;2.55;;;32.60;1.00;;;;;;4989143;28;20277;-75